sensor_id;sensor_type;location;lat;lon;timestamp;temperature;humidity
26049;DHT22;13822;51.568;5.086;2023-07-02T05:21:55;15.90;99.90
26049;DHT22;13822;51.568;5.086;2023-07-02T05:26:57;16.00;99.90
26049;DHT22;13822;51.568;5.086;2023-07-02T05:31:59;16.10;99.90
26049;DHT22;13822;51.568;5.086;2023-07-02T05:37:05;16.20;99.90
26049;DHT22;13822;51.568;5.086;2023-07-02T05:42:09;16.30;99.90
26049;DHT22;13822;51.568;5.086;2023-07-02T05:47:11;16.30;99.90
26049;DHT22;13822;51.568;5.086;2023-07-02T05:52:13;16.40;99.90
26049;DHT22;13822;51.568;5.086;2023-07-02T05:57:15;16.50;99.90
26049;DHT22;13822;51.568;5.086;2023-07-02T06:02:17;16.60;99.90
26049;DHT22;13822;51.568;5.086;2023-07-02T06:07:19;16.70;99.90
26049;DHT22;13822;51.568;5.086;2023-07-02T06:12:22;16.80;99.90
26049;DHT22;13822;51.568;5.086;2023-07-02T06:17:24;16.90;99.90
26049;DHT22;13822;51.568;5.086;2023-07-02T06:22:26;17.00;99.90
26049;DHT22;13822;51.568;5.086;2023-07-02T06:27:28;17.10;99.90
26049;DHT22;13822;51.568;5.086;2023-07-02T06:32:30;17.10;99.90
26049;DHT22;13822;51.568;5.086;2023-07-02T06:37:36;17.20;99.90
26049;DHT22;13822;51.568;5.086;2023-07-02T06:42:37;17.20;99.90
26049;DHT22;13822;51.568;5.086;2023-07-02T06:47:39;17.30;99.90
26049;DHT22;13822;51.568;5.086;2023-07-02T06:52:41;17.40;99.90
26049;DHT22;13822;51.568;5.086;2023-07-02T06:57:44;17.50;99.90
26049;DHT22;13822;51.568;5.086;2023-07-02T07:02:49;17.60;99.90
26049;DHT22;13822;51.568;5.086;2023-07-02T07:07:51;17.60;99.90
26049;DHT22;13822;51.568;5.086;2023-07-02T07:12:56;17.70;99.90
26049;DHT22;13822;51.568;5.086;2023-07-02T07:17:58;17.80;99.90
26049;DHT22;13822;51.568;5.086;2023-07-02T07:23:01;17.80;99.90
26049;DHT22;13822;51.568;5.086;2023-07-02T07:28:04;17.90;99.90
26049;DHT22;13822;51.568;5.086;2023-07-02T07:33:06;18.00;99.90
26049;DHT22;13822;51.568;5.086;2023-07-02T07:38:12;18.10;99.90
26049;DHT22;13822;51.568;5.086;2023-07-02T07:43:17;18.20;99.90
26049;DHT22;13822;51.568;5.086;2023-07-02T07:48:19;18.20;99.90
26049;DHT22;13822;51.568;5.086;2023-07-02T07:53:23;18.20;99.90
26049;DHT22;13822;51.568;5.086;2023-07-02T07:58:24;18.30;99.90
26049;DHT22;13822;51.568;5.086;2023-07-02T08:03:27;18.40;99.90
26049;DHT22;13822;51.568;5.086;2023-07-02T08:08:29;18.40;99.90
26049;DHT22;13822;51.568;5.086;2023-07-02T08:13:31;18.40;99.90
26049;DHT22;13822;51.568;5.086;2023-07-02T08:18:33;18.50;99.90
26049;DHT22;13822;51.568;5.086;2023-07-02T08:23:35;18.60;99.90
26049;DHT22;13822;51.568;5.086;2023-07-02T08:28:37;18.60;99.90
26049;DHT22;13822;51.568;5.086;2023-07-02T08:33:42;18.60;99.90
26049;DHT22;13822;51.568;5.086;2023-07-02T08:38:44;18.70;99.90
26049;DHT22;13822;51.568;5.086;2023-07-02T08:43:45;18.90;99.90
26049;DHT22;13822;51.568;5.086;2023-07-02T08:48:50;19.10;99.90
26049;DHT22;13822;51.568;5.086;2023-07-02T08:53:52;19.20;99.90
26049;DHT22;13822;51.568;5.086;2023-07-02T08:58:54;19.20;99.90
26049;DHT22;13822;51.568;5.086;2023-07-02T09:03:59;19.10;99.90
26049;DHT22;13822;51.568;5.086;2023-07-02T09:09:04;19.30;99.90
26049;DHT22;13822;51.568;5.086;2023-07-02T09:14:07;19.40;99.90
26049;DHT22;13822;51.568;5.086;2023-07-02T09:19:08;19.50;99.90
26049;DHT22;13822;51.568;5.086;2023-07-02T09:24:18;19.60;99.90
26049;DHT22;13822;51.568;5.086;2023-07-02T09:29:42;19.70;99.90
26049;DHT22;13822;51.568;5.086;2023-07-02T09:34:43;19.70;99.60
26049;DHT22;13822;51.568;5.086;2023-07-02T09:39:48;19.60;99.90
26049;DHT22;13822;51.568;5.086;2023-07-02T09:44:52;19.50;99.90
26049;DHT22;13822;51.568;5.086;2023-07-02T09:50:04;19.50;99.90
26049;DHT22;13822;51.568;5.086;2023-07-02T09:55:10;19.40;99.90
26049;DHT22;13822;51.568;5.086;2023-07-02T10:00:13;19.20;99.90
26049;DHT22;13822;51.568;5.086;2023-07-02T10:05:28;19.00;99.90
26049;DHT22;13822;51.568;5.086;2023-07-02T10:10:34;18.90;99.90
26049;DHT22;13822;51.568;5.086;2023-07-02T10:15:36;18.80;99.90
26049;DHT22;13822;51.568;5.086;2023-07-02T10:20:41;18.90;99.90
26049;DHT22;13822;51.568;5.086;2023-07-02T10:25:44;19.00;99.90
26049;DHT22;13822;51.568;5.086;2023-07-02T10:30:46;19.00;99.90
26049;DHT22;13822;51.568;5.086;2023-07-02T10:35:48;19.00;99.90
26049;DHT22;13822;51.568;5.086;2023-07-02T10:46:00;18.90;99.90
26049;DHT22;13822;51.568;5.086;2023-07-02T10:51:11;19.00;99.90
26049;DHT22;13822;51.568;5.086;2023-07-02T10:56:17;19.20;99.90
26049;DHT22;13822;51.568;5.086;2023-07-02T11:01:37;19.50;99.90
26049;DHT22;13822;51.568;5.086;2023-07-02T11:06:39;19.90;99.90
26049;DHT22;13822;51.568;5.086;2023-07-02T11:11:54;20.40;99.90
26049;DHT22;13822;51.568;5.086;2023-07-02T11:17:04;21.10;99.90
26049;DHT22;13822;51.568;5.086;2023-07-02T11:22:07;21.60;94.40
26049;DHT22;13822;51.568;5.086;2023-07-02T11:27:10;21.60;87.20
26049;DHT22;13822;51.568;5.086;2023-07-02T11:32:23;21.10;82.00
26049;DHT22;13822;51.568;5.086;2023-07-02T11:37:25;21.40;81.70
26049;DHT22;13822;51.568;5.086;2023-07-02T11:42:29;21.80;81.80
26049;DHT22;13822;51.568;5.086;2023-07-02T11:47:31;22.30;76.30
26049;DHT22;13822;51.568;5.086;2023-07-02T11:52:36;22.50;76.00
26049;DHT22;13822;51.568;5.086;2023-07-02T11:57:40;22.80;78.10
26049;DHT22;13822;51.568;5.086;2023-07-02T12:02:42;23.10;64.20
26049;DHT22;13822;51.568;5.086;2023-07-02T12:07:46;23.30;63.10
26049;DHT22;13822;51.568;5.086;2023-07-02T12:12:48;23.50;61.00
26049;DHT22;13822;51.568;5.086;2023-07-02T12:17:53;23.70;56.20
26049;DHT22;13822;51.568;5.086;2023-07-02T12:22:56;23.90;55.60
26049;DHT22;13822;51.568;5.086;2023-07-02T12:28:02;23.50;61.30
26049;DHT22;13822;51.568;5.086;2023-07-02T12:33:08;23.80;58.60
26049;DHT22;13822;51.568;5.086;2023-07-02T12:38:11;24.20;54.90
26049;DHT22;13822;51.568;5.086;2023-07-02T12:43:25;24.10;50.20
26049;DHT22;13822;51.568;5.086;2023-07-02T12:48:27;23.80;52.30
26049;DHT22;13822;51.568;5.086;2023-07-02T12:53:29;23.80;48.80
26049;DHT22;13822;51.568;5.086;2023-07-02T12:58:31;23.80;46.20
26049;DHT22;13822;51.568;5.086;2023-07-02T13:03:35;24.00;46.40
26049;DHT22;13822;51.568;5.086;2023-07-02T13:08:37;23.90;46.80
26049;DHT22;13822;51.568;5.086;2023-07-02T13:13:39;23.70;49.50
26049;DHT22;13822;51.568;5.086;2023-07-02T13:18:42;23.70;44.80
26049;DHT22;13822;51.568;5.086;2023-07-02T13:23:44;23.50;47.40
26049;DHT22;13822;51.568;5.086;2023-07-02T13:28:46;23.90;48.50
26049;DHT22;13822;51.568;5.086;2023-07-02T13:33:49;24.30;44.40
26049;DHT22;13822;51.568;5.086;2023-07-02T13:38:51;24.40;46.50
26049;DHT22;13822;51.568;5.086;2023-07-02T13:43:53;24.70;45.90
26049;DHT22;13822;51.568;5.086;2023-07-02T13:48:55;24.90;47.10
26049;DHT22;13822;51.568;5.086;2023-07-02T13:53:57;25.10;44.30
26049;DHT22;13822;51.568;5.086;2023-07-02T13:59:00;25.10;45.20
26049;DHT22;13822;51.568;5.086;2023-07-02T14:04:03;25.40;42.70
26049;DHT22;13822;51.568;5.086;2023-07-02T14:09:05;25.80;43.60
26049;DHT22;13822;51.568;5.086;2023-07-02T14:14:07;25.80;41.20
26049;DHT22;13822;51.568;5.086;2023-07-02T14:19:16;26.00;41.30
26049;DHT22;13822;51.568;5.086;2023-07-02T14:24:19;26.10;43.10
26049;DHT22;13822;51.568;5.086;2023-07-02T14:29:20;26.00;40.40
26049;DHT22;13822;51.568;5.086;2023-07-02T14:34:22;25.80;40.50
26049;DHT22;13822;51.568;5.086;2023-07-02T14:39:25;25.90;41.90
26049;DHT22;13822;51.568;5.086;2023-07-02T14:44:27;25.90;41.10
26049;DHT22;13822;51.568;5.086;2023-07-02T14:49:29;26.20;40.20
26049;DHT22;13822;51.568;5.086;2023-07-02T14:54:31;26.10;40.20
26049;DHT22;13822;51.568;5.086;2023-07-02T14:59:33;26.20;41.30
26049;DHT22;13822;51.568;5.086;2023-07-02T15:04:34;26.00;42.90
26049;DHT22;13822;51.568;5.086;2023-07-02T15:09:37;25.40;42.20
26049;DHT22;13822;51.568;5.086;2023-07-02T15:14:39;24.80;43.50
26049;DHT22;13822;51.568;5.086;2023-07-02T15:19:41;24.70;44.30
26049;DHT22;13822;51.568;5.086;2023-07-02T15:24:42;24.60;43.80
26049;DHT22;13822;51.568;5.086;2023-07-02T15:29:44;24.50;44.00
26049;DHT22;13822;51.568;5.086;2023-07-02T15:34:46;24.60;44.20
26049;DHT22;13822;51.568;5.086;2023-07-02T15:39:48;24.80;44.90
26049;DHT22;13822;51.568;5.086;2023-07-02T15:44:50;25.20;42.20
26049;DHT22;13822;51.568;5.086;2023-07-02T15:49:52;25.10;41.70
26049;DHT22;13822;51.568;5.086;2023-07-02T15:54:54;25.00;42.30
26049;DHT22;13822;51.568;5.086;2023-07-02T15:59:56;24.90;44.10
26049;DHT22;13822;51.568;5.086;2023-07-02T16:04:58;24.80;46.50
26049;DHT22;13822;51.568;5.086;2023-07-02T16:10:01;24.50;43.90
26049;DHT22;13822;51.568;5.086;2023-07-02T16:15:04;24.10;46.70
26049;DHT22;13822;51.568;5.086;2023-07-02T16:20:06;23.60;45.60
26049;DHT22;13822;51.568;5.086;2023-07-02T16:25:09;23.40;47.00
26049;DHT22;13822;51.568;5.086;2023-07-02T16:30:14;23.20;48.30
26049;DHT22;13822;51.568;5.086;2023-07-02T16:35:16;23.10;48.80
26049;DHT22;13822;51.568;5.086;2023-07-02T16:40:18;23.00;49.00
26049;DHT22;13822;51.568;5.086;2023-07-02T16:45:20;22.90;50.20
26049;DHT22;13822;51.568;5.086;2023-07-02T16:50:24;22.70;49.90
26049;DHT22;13822;51.568;5.086;2023-07-02T16:55:26;22.60;49.90
26049;DHT22;13822;51.568;5.086;2023-07-02T17:00:31;22.40;54.10
26049;DHT22;13822;51.568;5.086;2023-07-02T17:05:33;22.10;52.80
26049;DHT22;13822;51.568;5.086;2023-07-02T17:10:38;22.00;55.20
26049;DHT22;13822;51.568;5.086;2023-07-02T17:15:40;22.00;55.30
26049;DHT22;13822;51.568;5.086;2023-07-02T17:20:48;21.90;56.40
26049;DHT22;13822;51.568;5.086;2023-07-02T17:25:51;21.90;57.60
26049;DHT22;13822;51.568;5.086;2023-07-02T17:31:01;21.80;58.70
26049;DHT22;13822;51.568;5.086;2023-07-02T17:36:03;21.80;60.30
26049;DHT22;13822;51.568;5.086;2023-07-02T17:41:06;21.70;60.00
26049;DHT22;13822;51.568;5.086;2023-07-02T17:46:13;21.70;61.40
26049;DHT22;13822;51.568;5.086;2023-07-02T17:51:16;21.60;60.60
26049;DHT22;13822;51.568;5.086;2023-07-02T17:56:18;21.50;60.80
26049;DHT22;13822;51.568;5.086;2023-07-02T18:01:20;21.30;62.10
26049;DHT22;13822;51.568;5.086;2023-07-02T18:06:22;21.30;64.20
26049;DHT22;13822;51.568;5.086;2023-07-02T18:11:24;21.20;65.00
26049;DHT22;13822;51.568;5.086;2023-07-02T18:16:26;21.20;67.40
26049;DHT22;13822;51.568;5.086;2023-07-02T18:21:31;21.10;68.50
26049;DHT22;13822;51.568;5.086;2023-07-02T18:26:33;21.10;71.40
26049;DHT22;13822;51.568;5.086;2023-07-02T18:31:36;20.90;69.80
26049;DHT22;13822;51.568;5.086;2023-07-02T18:36:38;20.90;70.50
26049;DHT22;13822;51.568;5.086;2023-07-02T18:41:40;20.70;70.00
26049;DHT22;13822;51.568;5.086;2023-07-02T18:46:42;20.60;72.10
26049;DHT22;13822;51.568;5.086;2023-07-02T18:51:44;20.50;74.20
26049;DHT22;13822;51.568;5.086;2023-07-02T18:56:46;20.40;79.70
26049;DHT22;13822;51.568;5.086;2023-07-02T19:01:48;20.20;78.10
26049;DHT22;13822;51.568;5.086;2023-07-02T19:06:51;20.10;80.10
26049;DHT22;13822;51.568;5.086;2023-07-02T19:11:55;20.00;78.00
26049;DHT22;13822;51.568;5.086;2023-07-02T19:16:59;19.90;80.80
26049;DHT22;13822;51.568;5.086;2023-07-02T19:22:02;19.90;79.10
26049;DHT22;13822;51.568;5.086;2023-07-02T19:27:05;19.80;77.50
26049;DHT22;13822;51.568;5.086;2023-07-02T19:32:09;19.70;74.70
26049;DHT22;13822;51.568;5.086;2023-07-02T19:37:11;19.70;71.90
26049;DHT22;13822;51.568;5.086;2023-07-02T19:42:13;19.60;73.40
26049;DHT22;13822;51.568;5.086;2023-07-02T19:47:17;19.50;70.70
26049;DHT22;13822;51.568;5.086;2023-07-02T19:52:19;19.40;71.40
26049;DHT22;13822;51.568;5.086;2023-07-02T19:57:24;19.30;71.00
26049;DHT22;13822;51.568;5.086;2023-07-02T20:02:27;19.30;71.80
26049;DHT22;13822;51.568;5.086;2023-07-02T20:07:29;19.20;71.60
26049;DHT22;13822;51.568;5.086;2023-07-02T20:12:31;19.10;71.00
26049;DHT22;13822;51.568;5.086;2023-07-02T20:17:33;19.10;72.80
26049;DHT22;13822;51.568;5.086;2023-07-02T20:22:37;19.00;72.30
26049;DHT22;13822;51.568;5.086;2023-07-02T20:27:39;18.90;72.30
